ファアモツ国際空港の過去48時間の天気

ファアモツ国際空港 (Fua'Amotu)

現在時刻: 9/26 09:11 +13 (9/25 20:11 UTC) 以下の時間は現地時間です。

過去48時間のMETAR気象情報
時間 風向 風速(m/s) 視程 気温(℃) 湿度(%) 気圧(hPa) 天気現象
26 09:00 東南東 2 10km以上 23 94 1016
26 08:00 南東 2 10km以上 22 100 1016
26 07:00 東南東 2 10km以上 21 100 1015
26 06:00 南南東 2 10km以上 22 94 1015 弱い霧雨
26 05:00 2 10km以上 23 89 1014 弱い霧雨
26 04:00 東北東 2 10km以上 24 94 1014
26 03:00 2 10km以上 24 94 1014
26 02:00 東北東 3 10km以上 24 94 1015
26 01:00 東北東 2 10km以上 24 89 1016
26 00:00 東北東 2 10km以上 24 89 1017
25 23:00 北東 3 10km以上 24 89 1016
25 22:00 北東 3 10km以上 24 83 1016
25 21:00 北東 3 10km以上 24 83 1016
25 20:00 東北東 3 10km以上 24 83 1015
25 19:00 東北東 3 10km以上 23 94 1015
25 18:00 3 10km以上 24 94 1014 弱いしゅう雨
25 17:00 北東 3 10km以上 24 94 1015 弱いしゅう雨
25 16:00 4 10km以上 25 89 1014
25 15:00 東北東 3 10km以上 26 74 1015
25 14:00 4 10km以上 26 84 1015
25 13:00 4 10km以上 27 79 1017
25 12:00 4 10km以上 27 79 1017
25 11:00 4 10km以上 27 79 1017
25 10:00 4 10km以上 26 74 1017
25 09:00 4 10km以上 25 78 1017
25 08:00 4 10km以上 23 89 1017
25 07:00 3 10km以上 22 94 1017
25 06:00 4 10km以上 23 94 1016
25 05:00 3 10km以上 24 89 1016
25 04:00 3 10km以上 24 89 1016
25 03:00 2 10km以上 24 89 1016
25 02:00 3 10km以上 24 89 1017
25 01:00 東北東 3 10km以上 24 89 1017
25 00:00 4 10km以上 24 89 1017
24 23:00 3 10km以上 24 94 1018
24 22:00 4 10km以上 24 89 1017
24 21:00 3 10km以上 24 89 1017
24 20:00 4 10km以上 24 89 1016
24 19:00 4 10km以上 24 89 1016
24 18:00 4 10km以上 25 83 1016
24 17:00 4 10km以上 25 89 1016
24 16:00 4 10km以上 26 84 1016
24 15:00 4 10km以上 27 79 1016
24 14:00 5 10km以上 27 74 1016
24 13:00 東北東 6 10km以上 27 79 1017
24 12:00 5 10km以上 27 74 1018
24 11:00 5 10km以上 25 89 1018
24 10:00 5 10km以上 26 84 1019
NFTF 252000Z 12004KT 9999 FEW015TCU BKN110 23/22 Q1016
NFTF 251900Z 14003KT 9999 FEW015TCU BKN100 22/22 Q1016
NFTF 251800Z 12004KT 9999 FEW015TCU BKN100 21/21 Q1015
NFTF 251700Z 15003KT 9999 -DZ FEW010 SCT015TCU BKN100 22/21 Q1015
NFTF 251600Z 01004KT 9999 -DZ SCT015TCU BKN100 23/21 Q1014
NFTF 251500Z 07004KT 9999 FEW015 SCT100 BKN280 24/23 Q1014
NFTF 251400Z 08004KT 9999 FEW015 SCT100 BKN280 24/23 Q1014
NFTF 251300Z 07005KT 9999 FEW015 BKN100 24/23 Q1015
NFTF 251200Z 07004KT 9999 SCT015 OVC100 24/22 Q1016
NFTF 251100Z 06004KT 9999 SCT015 OVC100 24/22 Q1017
NFTF 251000Z 05005KT 9999 SCT015 BKN100 24/22 Q1016
NFTF 250900Z 05006KT 9999 FEW015 OVC100 24/21 Q1016
NFTF 250800Z 05005KT 9999 SCT016 OVC100 24/21 Q1016
NFTF 250700Z 07006KT 9999 SCT016 BKN100 24/21 Q1015
NFTF 250600Z 07006KT 9999 SCT016 BKN100 23/22 Q1015
NFTF 250500Z 08006KT 9999 -SHRA SCT016 BKN100 24/23 Q1014
NFTF 250400Z 05005KT 9999 -SHRA FEW016 BKN100 24/23 Q1015
NFTF 250300Z 08007KT 9999 SCT016TCU BKN100 25/23 Q1014
NFTF 250200Z 07005KT 9999 FEW016TCU SCT035 BKN100 26/21 Q1015
NFTF 250100Z 08008KT 9999 SCT016TCU SCT035 BKN100 26/23 Q1015
NFTF 260000Z 08008KT 9999 SCT016TCU BKN100 27/23 Q1017
NFTF 242300Z 09007KT 9999 SCT016TCU BKN100 27/23 Q1017
NFTF 242200Z 09007KT 9999 FEW016 BKN100 27/23 Q1017
NFTF 242100Z 10007KT 9999 SCT040 BKN100 26/21 Q1017
NFTF 242000Z 10008KT 9999 FEW016TCU BKN090 25/21 Q1017
NFTF 241900Z 10008KT 9999 FEW016TCU BKN035 23/21 Q1017
NFTF 241800Z 10006KT 9999 FEW016TCU BKN030 22/21 Q1017 REHSRA
NFTF 241700Z 08008KT 9999 FEW016 BKN030 23/22 Q1016
NFTF 241600Z 10005KT 9999 FEW016 BKN030 24/22 Q1016
NFTF 241500Z 08005KT 9999 FEW016 BKN030 24/22 Q1016
NFTF 241400Z 08004KT 9999 FEW016 BKN030 24/22 Q1016
NFTF 241300Z 09005KT 9999 FEW016 24/22 Q1017
NFTF 241200Z 07006KT 9999 FEW016 24/22 Q1017
NFTF 241100Z 08007KT 9999 FEW016 24/22 Q1017
NFTF 241000Z 08006KT 9999 FEW016 SCT100 24/23 Q1018
NFTF 240900Z 08007KT 9999 FEW016 BKN100 24/22 Q1017
NFTF 240800Z 08006KT 9999 FEW016 BKN100 24/22 Q1017
NFTF 240700Z 08007KT 9999 FEW016 BKN100 24/22 Q1016
NFTF 240600Z 09007KT 9999 FEW016 BKN100 24/22 Q1016
NFTF 240500Z 08007KT 9999 SCT016 BKN100 25/22 Q1016
NFTF 240400Z 08007KT 9999 SCT016 BKN100 25/23 Q1016
NFTF 240300Z 08007KT 9999 FEW016 BKN110 26/23 Q1016
NFTF 240200Z 09008KT 9999 FEW017 BKN110 27/23 Q1016
NFTF 240100Z 08009KT 9999 FEW017 BKN110 27/22 Q1016
NFTF 240000Z 06011KT 9999 FEW017 BKN110 27/23 Q1017
NFTF 232300Z 08009KT 9999 FEW016 SCT040 BKN120 27/22 Q1018
NFTF 232200Z 08010KT 9999 FEW016 BKN120 25/23 Q1018
NFTF 232100Z 08010KT 9999 BKN015 26/23 Q1019